Terminal Aerodrome Forecast
Issued by NWS Quad Cities IA IL

Home | Current Version | Previous Version | Text Only | Print | Product List | Glossary On
Versions: 1 2 3 4 5 6 7 8 9 10 11 12 13 14 15 16 17 18 19 20 21 22 23 24 25
000
FTUS43 KDVN 220200 AAA
TAFMLI
TAF AMD
KMLI 220209Z 2202/2224 15011KT P6SM OVC040
      TEMPO 2202/2204 5SM -RA BR BKN025 OVC035
     FM221200 14012KT 2SM -RADZ BR BKN012 OVC020=

USA.gov is the U.S. government's official web portal to all federal, state and local government web resources and services.